Station History

Weather Underground - logo

Station Historical Data
Daily Summary for November 18, 2017 Units:  English    Metric   Both
« Previous Day
Next Day »
Daily Weekly Monthly Yearly Custom
  High: Low: Average:
Temperature: TemperatureF °F 44.1 °F 52.9 °F
Dew Point: DewpointF °F 42.7 °F 48.2 °F
Humidity: Humidity % 66 % 84 %
Wind Speed: WindSpeedMPH mph 0.0 mph 0.5 mph
Wind Gust: WindSpeedGustMPH mph - -
Wind:- - SSW
Pressure: PressureIn in 30.14 in -
Precipitation: 0.00 in    
Historical Graphs
 
 
Tabular Data for November 18, 2017
Time Temperature Dew Point Pressure Wind Wind Speed Wind Gust Humidity Rainfall Rate (Hourly)
TemperatureF °F DewpointF °F PressureIn in Calm     Humidity % HourlyPrecipIn in
00:04 51.0 °F 47.0 °F 30.18 in Calm     86 % 0.00 in
00:09 50.9 °F 46.9 °F 30.18 in Calm     86 % 0.00 in
00:14 51.0 °F 47.0 °F 30.18 in Calm     86 % 0.00 in
00:19 51.0 °F 47.0 °F 30.18 in NNW 1.2 mph   86 % 0.00 in
00:24 51.2 °F 46.8 °F 30.18 in Calm     85 % 0.00 in
00:29 51.3 °F 46.9 °F 30.18 in Calm     85 % 0.00 in
00:34 51.4 °F 47.0 °F 30.18 in Calm     85 % 0.00 in
00:39 51.3 °F 46.9 °F 30.18 in Calm     85 % 0.00 in
00:45 51.2 °F 46.8 °F 30.18 in Calm     85 % 0.00 in
00:50 51.1 °F 47.1 °F 30.18 in Calm     86 % 0.00 in
00:55 50.8 °F 47.1 °F 30.18 in Calm     87 % 0.00 in
01:00 50.7 °F 47.0 °F 30.19 in Calm     87 % 0.00 in
01:05 50.6 °F 46.9 °F 30.19 in Calm     87 % 0.00 in
01:10 50.4 °F 47.0 °F 30.19 in Calm     88 % 0.00 in
01:15 50.3 °F 46.9 °F 30.19 in Calm     88 % 0.00 in
01:20 50.3 °F 47.2 °F 30.19 in Calm     89 % 0.00 in
01:25 50.3 °F 47.2 °F 30.19 in Calm     89 % 0.00 in
01:30 50.3 °F 47.2 °F 30.19 in Calm     89 % 0.00 in
01:35 50.2 °F 47.1 °F 30.19 in Calm     89 % 0.00 in
01:40 50.1 °F 47.0 °F 30.19 in Calm     89 % 0.00 in
01:45 50.1 °F 47.3 °F 30.19 in Calm     90 % 0.00 in
01:50 50.0 °F 47.2 °F 30.19 in Calm     90 % 0.00 in
01:55 50.0 °F 47.2 °F 30.20 in SE 1.2 mph   90 % 0.00 in
02:00 49.9 °F 47.1 °F 30.20 in Calm     90 % 0.00 in
02:05 49.9 °F 47.1 °F 30.20 in Calm     90 % 0.00 in
02:10 49.7 °F 46.9 °F 30.20 in Calm     90 % 0.00 in
02:15 49.6 °F 46.8 °F 30.20 in Calm     90 % 0.00 in
02:20 49.3 °F 46.8 °F 30.20 in Calm     91 % 0.00 in
02:25 49.0 °F 46.5 °F 30.20 in Calm     91 % 0.00 in
02:30 48.8 °F 46.3 °F 30.20 in Calm     91 % 0.00 in
02:35 48.5 °F 46.3 °F 30.19 in Calm     92 % 0.00 in
02:40 48.3 °F 46.1 °F 30.20 in Calm     92 % 0.00 in
02:45 48.1 °F 45.9 °F 30.19 in Calm     92 % 0.00 in
02:50 48.0 °F 46.1 °F 30.20 in Calm     93 % 0.00 in
02:55 47.7 °F 45.8 °F 30.20 in Calm     93 % 0.00 in
03:00 47.6 °F 45.7 °F 30.19 in Calm     93 % 0.00 in
03:05 47.5 °F 45.6 °F 30.19 in Calm     93 % 0.00 in
03:10 47.5 °F 45.6 °F 30.19 in Calm     93 % 0.00 in
03:15 47.5 °F 45.6 °F 30.19 in Calm     93 % 0.00 in
03:20 47.5 °F 45.9 °F 30.19 in Calm     94 % 0.00 in
03:25 47.5 °F 45.9 °F 30.19 in Calm     94 % 0.00 in
03:30 47.6 °F 46.0 °F 30.19 in Calm     94 % 0.00 in
03:35 47.5 °F 45.9 °F 30.19 in Calm     94 % 0.00 in
03:40 47.6 °F 46.0 °F 30.19 in Calm     94 % 0.00 in
03:46 47.6 °F 46.0 °F 30.19 in Calm     94 % 0.00 in
03:51 47.5 °F 45.6 °F 30.19 in Calm     93 % 0.00 in
03:56 47.5 °F 45.6 °F 30.19 in Calm     93 % 0.00 in
04:01 47.4 °F 45.5 °F 30.19 in Calm     93 % 0.00 in
04:06 47.4 °F 45.8 °F 30.19 in Calm     94 % 0.00 in
04:11 47.4 °F 45.8 °F 30.19 in Calm     94 % 0.00 in
04:16 47.3 °F 45.7 °F 30.19 in Calm     94 % 0.00 in
04:21 47.3 °F 45.7 °F 30.19 in Calm     94 % 0.00 in
04:26 47.2 °F 45.6 °F 30.19 in Calm     94 % 0.00 in
04:31 47.2 °F 45.6 °F 30.19 in Calm     94 % 0.00 in
04:36 47.1 °F 45.5 °F 30.19 in Calm     94 % 0.00 in
04:41 47.1 °F 45.5 °F 30.19 in Calm     94 % 0.00 in
04:46 47.0 °F 45.4 °F 30.19 in Calm     94 % 0.00 in
04:51 46.9 °F 45.3 °F 30.19 in Calm     94 % 0.00 in
04:56 47.0 °F 45.4 °F 30.19 in Calm     94 % 0.00 in
05:01 46.9 °F 45.3 °F 30.19 in Calm     94 % 0.00 in
05:06 46.7 °F 45.1 °F 30.19 in Calm     94 % 0.00 in
05:11 46.5 °F 44.9 °F 30.19 in Calm     94 % 0.00 in
05:16 46.4 °F 44.8 °F 30.19 in Calm     94 % 0.00 in
05:21 46.3 °F 44.7 °F 30.19 in Calm     94 % 0.00 in
05:26 46.3 °F 44.7 °F 30.19 in Calm     94 % 0.00 in
05:31 46.0 °F 44.4 °F 30.20 in Calm     94 % 0.00 in
05:36 45.8 °F 44.2 °F 30.20 in Calm     94 % 0.00 in
05:41 45.8 °F 44.2 °F 30.20 in Calm     94 % 0.00 in
05:46 45.8 °F 44.4 °F 30.20 in Calm     95 % 0.00 in
05:51 45.9 °F 44.5 °F 30.20 in Calm     95 % 0.00 in
05:56 45.7 °F 44.4 °F 30.20 in Calm     95 % 0.00 in
06:01 45.5 °F 43.9 °F 30.20 in Calm     94 % 0.00 in
06:06 45.3 °F 43.7 °F 30.20 in Calm     94 % 0.00 in
06:11 45.2 °F 43.6 °F 30.20 in Calm     94 % 0.00 in
06:16 45.2 °F 43.9 °F 30.20 in Calm     95 % 0.00 in
06:21 45.1 °F 43.8 °F 30.20 in Calm     95 % 0.00 in
06:26 45.0 °F 43.7 °F 30.21 in Calm     95 % 0.00 in
06:31 44.7 °F 43.4 °F 30.21 in Calm     95 % 0.00 in
06:36 44.5 °F 42.9 °F 30.21 in Calm     94 % 0.00 in
06:41 44.3 °F 42.7 °F 30.21 in Calm     94 % 0.00 in
06:46 44.4 °F 43.1 °F 30.22 in Calm     95 % 0.00 in
06:51 44.5 °F 43.2 °F 30.22 in Calm     95 % 0.00 in
06:56 44.4 °F 43.1 °F 30.22 in Calm     95 % 0.00 in
07:01 44.3 °F 43.0 °F 30.22 in Calm     95 % 0.00 in
07:06 44.2 °F 42.9 °F 30.22 in Calm     95 % 0.00 in
07:11 44.3 °F 43.0 °F 30.22 in Calm     95 % 0.00 in
07:16 44.2 °F 42.9 °F 30.23 in Calm     95 % 0.00 in
07:21 44.1 °F 42.8 °F 30.23 in SE 1.2 mph   95 % 0.00 in
07:26 44.3 °F 43.0 °F 30.23 in Calm     95 % 0.00 in
07:31 44.6 °F 43.3 °F 30.23 in Calm     95 % 0.00 in
07:36 45.6 °F 44.3 °F 30.23 in Calm     95 % 0.00 in
07:41 46.5 °F 45.4 °F 30.23 in Calm     96 % 0.00 in
07:46 47.5 °F 46.4 °F 30.23 in SSE 1.0 mph   96 % 0.00 in
07:51 48.2 °F 46.8 °F 30.24 in SSE 1.2 mph   95 % 0.00 in
07:56 48.4 °F 46.8 °F 30.24 in SE 1.2 mph 1.2 mph 94 % 0.00 in
08:01 48.8 °F 46.9 °F 30.24 in SE 1.2 mph   93 % 0.00 in
08:06 49.0 °F 46.8 °F 30.25 in South 2.3 mph 2.3 mph 92 % 0.00 in
08:11 49.1 °F 46.6 °F 30.25 in SE 1.2 mph 1.2 mph 91 % 0.00 in
08:16 49.4 °F 46.9 °F 30.25 in Calm   0.2 mph 91 % 0.00 in
08:21 49.7 °F 47.2 °F 30.25 in Calm     91 % 0.00 in
08:26 50.4 °F 47.6 °F 30.25 in Calm     90 % 0.00 in
08:31 50.9 °F 47.8 °F 30.25 in Calm     89 % 0.00 in
08:36 51.2 °F 47.8 °F 30.25 in SSE 3.5 mph 3.5 mph 88 % 0.00 in
08:41 51.7 °F 48.3 °F 30.25 in South 2.3 mph 2.3 mph 88 % 0.00 in
08:46 52.3 °F 48.9 °F 30.25 in South 1.2 mph 1.2 mph 88 % 0.00 in
08:52 53.0 °F 49.2 °F 30.25 in ESE 3.5 mph   87 % 0.00 in
08:57 53.5 °F 49.4 °F 30.25 in ESE 2.3 mph 2.3 mph 86 % 0.00 in
09:02 53.9 °F 49.5 °F 30.24 in SE 2.3 mph 2.3 mph 85 % 0.00 in
09:07 54.3 °F 49.6 °F 30.24 in SSW 3.0 mph 3.0 mph 84 % 0.00 in
09:12 54.7 °F 50.0 °F 30.24 in ESE 2.3 mph 2.3 mph 84 % 0.00 in
09:17 55.0 °F 49.9 °F 30.24 in South 4.0 mph 4.0 mph 83 % 0.00 in
09:22 55.3 °F 49.6 °F 30.24 in SSE 3.5 mph 3.5 mph 81 % 0.00 in
09:27 55.5 °F 50.1 °F 30.24 in SE 1.2 mph 1.2 mph 82 % 0.00 in
09:32 56.0 °F 49.9 °F 30.24 in SE 2.3 mph 2.3 mph 80 % 0.00 in
09:37 56.3 °F 49.9 °F 30.24 in East 2.3 mph 2.3 mph 79 % 0.00 in
09:42 56.7 °F 50.3 °F 30.24 in South 3.0 mph 3.0 mph 79 % 0.00 in
09:47 57.0 °F 50.2 °F 30.24 in SSE 1.2 mph 1.2 mph 78 % 0.00 in
09:52 57.5 °F 50.7 °F 30.24 in NNW 2.3 mph 2.3 mph 78 % 0.00 in
09:53 57.6 °F 50.8 °F 30.24 in SSE 1.2 mph 1.2 mph 78 % 0.00 in
09:58 57.8 °F 50.3 °F 30.24 in ESE 4.6 mph 4.6 mph 76 % 0.00 in
10:03 57.9 °F 50.4 °F 30.25 in NW 1.2 mph   76 % 0.00 in
10:08 57.7 °F 50.9 °F 30.25 in SE 3.5 mph 3.5 mph 78 % 0.00 in
10:13 58.0 °F 50.8 °F 30.25 in WNW 2.3 mph 2.3 mph 77 % 0.00 in
10:18 57.4 °F 50.9 °F 30.24 in Calm     79 % 0.00 in
10:23 57.8 °F 50.6 °F 30.25 in Calm   0.1 mph 77 % 0.00 in
10:28 58.1 °F 50.2 °F 30.25 in NW 1.2 mph 1.2 mph 75 % 0.00 in
10:33 57.9 °F 50.0 °F 30.25 in West 2.3 mph 2.3 mph 75 % 0.00 in
10:38 57.9 °F 50.4 °F 30.25 in North 2.3 mph 2.3 mph 76 % 0.00 in
10:43 58.0 °F 50.5 °F 30.25 in Calm   0.4 mph 76 % 0.00 in
10:48 58.4 °F 50.5 °F 30.25 in Calm   0.3 mph 75 % 0.00 in
10:53 58.8 °F 50.9 °F 30.25 in South 2.0 mph 2.0 mph 75 % 0.00 in
10:58 59.2 °F 50.9 °F 30.25 in East 2.3 mph 2.3 mph 74 % 0.00 in
11:03 59.3 °F 51.0 °F 30.24 in ESE 2.3 mph   74 % 0.00 in
11:08 59.2 °F 50.5 °F 30.24 in SSE 1.2 mph 1.2 mph 73 % 0.00 in
11:13 59.3 °F 51.0 °F 30.24 in NNE 2.3 mph   74 % 0.00 in
11:18 59.7 °F 51.0 °F 30.23 in NE 2.3 mph 2.3 mph 73 % 0.00 in
11:23 59.9 °F 51.2 °F 30.23 in SSE 2.3 mph 2.3 mph 73 % 0.00 in
11:28 60.0 °F 51.3 °F 30.23 in ENE 3.5 mph 3.5 mph 73 % 0.00 in
11:33 60.1 °F 51.4 °F 30.23 in South 1.0 mph 1.0 mph 73 % 0.00 in
11:39 60.6 °F 51.9 °F 30.22 in SE 2.3 mph 2.3 mph 73 % 0.00 in
11:44 60.9 °F 51.4 °F 30.22 in Calm     71 % 0.00 in
11:49 61.0 °F 51.5 °F 30.21 in SSE 2.3 mph 2.3 mph 71 % 0.00 in
11:54 61.6 °F 52.1 °F 30.21 in NNW 1.2 mph 1.2 mph 71 % 0.00 in
11:59 61.7 °F 52.2 °F 30.21 in SSE 1.2 mph   71 % 0.00 in
12:04 61.7 °F 52.2 °F 30.21 in East 1.2 mph 1.2 mph 71 % 0.00 in
12:09 61.5 °F 51.2 °F 30.21 in WNW 2.3 mph 2.3 mph 69 % 0.00 in
12:14 61.1 °F 51.2 °F 30.20 in WNW 1.2 mph 1.2 mph 70 % 0.00 in
12:19 61.5 °F 52.4 °F 30.20 in Calm     72 % 0.00 in
12:24 61.6 °F 51.3 °F 30.20 in ESE 1.2 mph 1.2 mph 69 % 0.00 in
12:29 62.0 °F 51.7 °F 30.19 in NW 1.2 mph 1.2 mph 69 % 0.00 in
12:34 61.9 °F 51.6 °F 30.19 in Calm     69 % 0.00 in
12:39 62.1 °F 51.8 °F 30.19 in WSW 1.2 mph   69 % 0.00 in
12:44 62.2 °F 51.9 °F 30.19 in West 1.2 mph 1.2 mph 69 % 0.00 in
12:49 62.2 °F 51.5 °F 30.18 in West 2.3 mph 2.3 mph 68 % 0.00 in
12:54 62.3 °F 52.4 °F 30.18 in SSW 1.2 mph 1.2 mph 70 % 0.00 in
12:59 62.7 °F 51.6 °F 30.18 in East 2.3 mph 2.3 mph 67 % 0.00 in
13:04 62.8 °F 52.1 °F 30.18 in SSE 1.2 mph 1.2 mph 68 % 0.00 in
13:09 62.9 °F 51.4 °F 30.18 in NW 2.3 mph 2.3 mph 66 % 0.00 in
13:14 62.4 °F 51.3 °F 30.17 in West 3.5 mph 3.5 mph 67 % 0.00 in
13:19 62.4 °F 51.7 °F 30.17 in NW 1.2 mph   68 % 0.00 in
13:24 63.0 °F 52.7 °F 30.17 in Calm     69 % 0.00 in
13:29 63.0 °F 51.5 °F 30.17 in WNW 1.2 mph 1.2 mph 66 % 0.00 in
13:34 62.8 °F 51.3 °F 30.17 in WSW 1.2 mph   66 % 0.00 in
13:39 63.0 °F 51.9 °F 30.16 in NW 2.3 mph 2.3 mph 67 % 0.00 in
13:44 62.7 °F 51.6 °F 30.17 in West 2.3 mph   67 % 0.00 in
13:49 62.7 °F 51.2 °F 30.16 in WNW 1.2 mph 1.2 mph 66 % 0.00 in
13:54 62.8 °F 51.3 °F 30.16 in WSW 2.3 mph 2.3 mph 66 % 0.00 in
13:59 62.7 °F 51.2 °F 30.16 in Calm     66 % 0.00 in
14:04 62.8 °F 51.3 °F 30.16 in WSW 2.3 mph 2.3 mph 66 % 0.00 in
14:09 63.0 °F 51.9 °F 30.16 in NW 3.5 mph 3.5 mph 67 % 0.00 in
14:14 63.0 °F 51.9 °F 30.16 in NW 3.5 mph 3.5 mph 67 % 0.00 in
14:19 63.0 °F 51.5 °F 30.15 in Calm   0.4 mph 66 % 0.00 in
14:24 62.9 °F 51.8 °F 30.15 in NW 1.2 mph 1.2 mph 67 % 0.00 in
14:29 62.9 °F 51.4 °F 30.15 in NW 1.2 mph 1.2 mph 66 % 0.00 in
14:34 62.9 °F 51.4 °F 30.15 in East 1.2 mph 1.2 mph 66 % 0.00 in
14:39 63.1 °F 51.6 °F 30.15 in NNW 3.0 mph 3.0 mph 66 % 0.00 in
14:44 63.2 °F 51.6 °F 30.14 in ESE 1.2 mph 1.2 mph 66 % 0.00 in
14:49 63.3 °F 51.7 °F 30.14 in Calm   0.2 mph 66 % 0.00 in
14:54 63.1 °F 52.0 °F 30.15 in Calm     67 % 0.00 in
14:59 63.0 °F 51.5 °F 30.14 in Calm     66 % 0.00 in
15:04 63.0 °F 51.5 °F 30.14 in Calm   0.1 mph 66 % 0.00 in
15:09 62.9 °F 51.4 °F 30.14 in Calm     66 % 0.00 in
15:15 62.8 °F 52.1 °F 30.14 in Calm     68 % 0.00 in
15:20 62.8 °F 51.7 °F 30.14 in Calm     67 % 0.00 in
15:25 62.8 °F 51.7 °F 30.14 in NW 1.2 mph 1.2 mph 67 % 0.00 in
15:30 62.6 °F 51.9 °F 30.14 in Calm     68 % 0.00 in
15:35 62.5 °F 51.8 °F 30.14 in Calm     68 % 0.00 in
15:40 62.4 °F 51.7 °F 30.14 in Calm     68 % 0.00 in
15:45 62.4 °F 51.7 °F 30.14 in Calm     68 % 0.00 in
15:50 62.3 °F 51.6 °F 30.14 in Calm     68 % 0.00 in
15:55 62.1 °F 51.4 °F 30.14 in Calm     68 % 0.00 in
16:00 62.0 °F 51.7 °F 30.14 in Calm     69 % 0.00 in
16:05 61.9 °F 52.0 °F 30.14 in Calm     70 % 0.00 in
16:10 61.8 °F 52.3 °F 30.14 in Calm     71 % 0.00 in
16:15 61.6 °F 52.5 °F 30.14 in Calm     72 % 0.00 in
16:20 61.3 °F 52.2 °F 30.14 in Calm     72 % 0.00 in
16:25 61.1 °F 52.4 °F 30.14 in Calm     73 % 0.00 in
16:30 60.7 °F 52.4 °F 30.14 in Calm     74 % 0.00 in
16:35 60.3 °F 52.0 °F 30.14 in Calm     74 % 0.00 in
16:40 59.9 °F 52.0 °F 30.14 in Calm     75 % 0.00 in
16:45 59.4 °F 51.8 °F 30.14 in Calm     76 % 0.00 in
16:50 58.8 °F 51.6 °F 30.14 in Calm     77 % 0.00 in
16:55 58.4 °F 51.6 °F 30.14 in Calm     78 % 0.00 in
17:00 57.9 °F 51.4 °F 30.14 in Calm     79 % 0.00 in
17:05 57.5 °F 51.4 °F 30.14 in Calm     80 % 0.00 in
17:10 57.0 °F 51.2 °F 30.14 in Calm     81 % 0.00 in
17:15 56.6 °F 51.2 °F 30.14 in Calm     82 % 0.00 in
17:20 56.3 °F 51.2 °F 30.14 in Calm     83 % 0.00 in
17:25 56.1 °F 51.3 °F 30.14 in Calm     84 % 0.00 in
17:30 55.8 °F 51.0 °F 30.14 in Calm     84 % 0.00 in
17:35 55.6 °F 51.2 °F 30.14 in Calm     85 % 0.00 in
17:40 55.3 °F 50.9 °F 30.14 in Calm     85 % 0.00 in
17:45 54.9 °F 50.8 °F 30.14 in Calm     86 % 0.00 in
17:50 54.5 °F 50.4 °F 30.14 in Calm     86 % 0.00 in
17:55 54.3 °F 50.5 °F 30.14 in Calm     87 % 0.00 in
18:00 54.2 °F 50.7 °F 30.14 in Calm     88 % 0.00 in
18:05 54.0 °F 50.5 °F 30.14 in Calm     88 % 0.00 in
18:10 53.7 °F 50.2 °F 30.14 in Calm   0.1 mph 88 % 0.00 in
18:15 53.2 °F 49.7 °F 30.14 in Calm     88 % 0.00 in
18:21 53.0 °F 50.1 °F 30.14 in Calm     90 % 0.00 in
18:26 53.1 °F 50.2 °F 30.14 in Calm     90 % 0.00 in
18:31 53.1 °F 50.2 °F 30.14 in Calm     90 % 0.00 in
18:36 53.1 °F 49.9 °F 30.15 in Calm     89 % 0.00 in
18:41 53.0 °F 49.8 °F 30.15 in Calm     89 % 0.00 in
18:46 52.8 °F 49.6 °F 30.15 in Calm     89 % 0.00 in
18:51 52.5 °F 49.4 °F 30.15 in Calm     89 % 0.00 in
18:56 52.2 °F 49.1 °F 30.15 in Calm     89 % 0.00 in
19:01 51.9 °F 49.1 °F 30.15 in Calm     90 % 0.00 in
19:06 51.9 °F 49.1 °F 30.15 in Calm     90 % 0.00 in
19:11 52.0 °F 49.2 °F 30.15 in Calm     90 % 0.00 in
19:16 51.9 °F 49.1 °F 30.15 in Calm     90 % 0.00 in
19:21 52.0 °F 49.2 °F 30.15 in Calm     90 % 0.00 in
19:23 52.0 °F 49.2 °F 30.15 in Calm     90 % 0.00 in
19:25 52.1 °F 49.3 °F 30.15 in Calm     90 % 0.00 in
19:27 52.1 °F 49.3 °F 30.15 in Calm     90 % 0.00 in
19:29 52.0 °F 48.9 °F 30.15 in Calm     89 % 0.00 in
19:33 51.9 °F 49.1 °F 30.15 in Calm     90 % 0.00 in
19:38 51.8 °F 48.7 °F 30.15 in Calm     89 % 0.00 in
19:44 51.6 °F 48.5 °F 30.15 in Calm     89 % 0.00 in
19:49 51.2 °F 48.1 °F 30.15 in Calm     89 % 0.00 in
19:54 50.9 °F 48.1 °F 30.15 in Calm     90 % 0.00 in
19:59 50.8 °F 48.0 °F 30.16 in Calm     90 % 0.00 in
20:04 50.8 °F 48.3 °F 30.16 in Calm     91 % 0.00 in
20:09 50.7 °F 48.2 °F 30.16 in Calm     91 % 0.00 in
20:14 50.6 °F 48.1 °F 30.16 in Calm     91 % 0.00 in
20:19 50.7 °F 48.5 °F 30.16 in Calm     92 % 0.00 in
20:24 50.5 °F 48.0 °F 30.16 in Calm     91 % 0.00 in
20:29 50.4 °F 47.9 °F 30.16 in Calm     91 % 0.00 in
20:34 50.2 °F 48.0 °F 30.16 in Calm     92 % 0.00 in
20:39 50.0 °F 47.8 °F 30.16 in Calm     92 % 0.00 in
20:49 49.6 °F 47.4 °F 30.17 in Calm     92 % 0.00 in
20:54 49.3 °F 47.1 °F 30.17 in Calm     92 % 0.00 in
21:05 48.9 °F 46.7 °F 30.17 in Calm     92 % 0.00 in
21:10 48.7 °F 46.5 °F 30.17 in Calm     92 % 0.00 in
21:15 48.7 °F 46.8 °F 30.17 in Calm     93 % 0.00 in
21:20 48.7 °F 46.8 °F 30.17 in Calm     93 % 0.00 in
21:25 48.5 °F 46.6 °F 30.17 in Calm     93 % 0.00 in
21:30 48.3 °F 46.4 °F 30.17 in Calm     93 % 0.00 in
21:35 48.2 °F 46.3 °F 30.17 in Calm     93 % 0.00 in
21:40 48.1 °F 46.5 °F 30.17 in Calm     94 % 0.00 in
21:50 47.6 °F 45.7 °F 30.17 in Calm     93 % 0.00 in
21:55 47.4 °F 45.5 °F 30.17 in Calm     93 % 0.00 in
22:00 47.1 °F 45.2 °F 30.17 in Calm     93 % 0.00 in
22:05 46.9 °F 45.0 °F 30.18 in Calm     93 % 0.00 in
22:20 46.7 °F 45.1 °F 30.18 in Calm     94 % 0.00 in
22:25 46.8 °F 45.2 °F 30.18 in Calm     94 % 0.00 in
22:50 46.7 °F 45.1 °F 30.18 in Calm     94 % 0.00 in
22:55 46.9 °F 45.5 °F 30.18 in Calm     95 % 0.00 in
23:00 46.9 °F 45.5 °F 30.18 in Calm     95 % 0.00 in
23:05 46.9 °F 45.5 °F 30.19 in Calm     95 % 0.00 in
23:10 46.7 °F 45.1 °F 30.19 in Calm     94 % 0.00 in
23:11 46.6 °F 45.0 °F 30.19 in Calm     94 % 0.00 in
23:16 46.7 °F 45.3 °F 30.19 in Calm     95 % 0.00 in
23:26 47.1 °F 45.7 °F 30.19 in Calm     95 % 0.00 in
23:31 47.0 °F 45.6 °F 30.19 in Calm     95 % 0.00 in
23:36 47.1 °F 45.7 °F 30.19 in Calm     95 % 0.00 in
23:41 47.2 °F 45.8 °F 30.19 in Calm     95 % 0.00 in
23:47 46.9 °F 45.5 °F 30.19 in Calm     95 % 0.00 in
23:52 46.8 °F 45.2 °F 30.19 in Calm     94 % 0.00 in
Park Place, Exeter, Tulare County, California, USA
Compliments of Weather Underground - 2.75 mb